Time;durP1;ratioP1;P1;durP2;ratioP2;P2;SDS_P1;SDS_P2;PMS_P1;PMS_P2;Temp;Humidity;BMP_temperature;BMP_pressure;BME280_temperature;BME280_humidity;BME280_pressure;Samples;Min_cycle;Max_cycle;Signal;HPM_P1;HPM_P2
2023/06/17 00:01:47;;;;;;;11.18;6.72;;;;;;;;;;6178041;23;20076;-48
2023/06/17 00:04:21;;;;;;;12.82;6.95;;;;;;;;;;6178975;23;20200;-49
2023/06/17 00:06:48;;;;;;;12.60;7.70;;;;;;;;;;6176497;23;20021;-49
2023/06/17 00:09:22;;;;;;;11.63;7.38;;;;;;;;;;6177892;23;20080;-48
2023/06/17 00:11:51;;;;;;;14.38;7.82;;;;;;;;;;6178874;23;20029;-48
2023/06/17 00:14:20;;;;;;;13.98;7.72;;;;;;;;;;6189500;23;20407;-51
2023/06/17 00:17:01;;;;;;;10.13;7.45;;;;;;;;;;6208346;23;20025;-60
2023/06/17 00:19:28;;;;;;;11.90;7.57;;;;;;;;;;6210391;23;20083;-57
2023/06/17 00:22:02;;;;;;;11.90;7.55;;;;;;;;;;6203964;23;20023;-60
2023/06/17 00:24:29;;;;;;;8.32;7.03;;;;;;;;;;6208658;23;20075;-61
2023/06/17 00:26:57;;;;;;;10.30;8.25;;;;;;;;;;6207778;23;20631;-40
2023/06/17 00:29:30;;;;;;;10.75;7.38;;;;;;;;;;6208734;23;20040;-60
2023/06/17 00:31:57;;;;;;;9.77;7.47;;;;;;;;;;6208109;23;20083;-60
2023/06/17 00:34:25;;;;;;;14.18;8.13;;;;;;;;;;6207713;23;20024;-60
2023/06/17 00:36:58;;;;;;;14.45;7.70;;;;;;;;;;6206744;23;20021;-61
2023/06/17 00:39:25;;;;;;;11.45;7.72;;;;;;;;;;6207957;23;20394;-60
2023/06/17 00:41:53;;;;;;;10.45;7.70;;;;;;;;;;6207662;23;20076;-60
2023/06/17 00:44:26;;;;;;;11.95;7.93;;;;;;;;;;6209062;23;20028;-60
2023/06/17 00:46:54;;;;;;;11.00;7.43;;;;;;;;;;6207453;23;20024;-60
2023/06/17 00:49:34;;;;;;;10.73;7.57;;;;;;;;;;6207713;23;20024;-59
2023/06/17 00:52:05;;;;;;;16.58;8.13;;;;;;;;;;6204973;23;20442;-61
2023/06/17 00:54:57;;;;;;;10.27;8.25;;;;;;;;;;6206948;23;20052;-47
2023/06/17 00:57:24;;;;;;;12.77;7.85;;;;;;;;;;6204109;23;20035;-60
2023/06/17 00:59:58;;;;;;;13.88;8.15;;;;;;;;;;6207859;23;20087;-60
2023/06/17 01:02:32;;;;;;;10.07;7.82;;;;;;;;;;6204393;23;20020;-60
2023/06/17 01:05:11;;;;;;;10.85;8.40;;;;;;;;;;6208280;23;20031;-60
2023/06/17 01:07:45;;;;;;;13.27;8.80;;;;;;;;;;6202254;23;20080;-59
2023/06/17 01:10:24;;;;;;;11.70;7.75;;;;;;;;;;6204475;23;20025;-60
2023/06/17 01:12:53;;;;;;;11.98;8.07;;;;;;;;;;6207111;23;20552;-43
2023/06/17 01:15:27;;;;;;;9.38;7.95;;;;;;;;;;6208595;23;20398;-43
2023/06/17 01:17:55;;;;;;;11.85;8.05;;;;;;;;;;6206569;23;20107;-47
2023/06/17 01:20:36;;;;;;;16.90;8.30;;;;;;;;;;6206389;23;20027;-43
2023/06/17 01:23:05;;;;;;;11.20;7.78;;;;;;;;;;6207273;23;20049;-49
2023/06/17 01:25:39;;;;;;;13.15;8.68;;;;;;;;;;6209034;23;20020;-60
2023/06/17 01:28:16;;;;;;;11.15;7.78;;;;;;;;;;6205544;23;20025;-60
2023/06/17 01:30:54;;;;;;;8.93;8.02;;;;;;;;;;6182594;23;20020;-60
2023/06/17 01:33:21;;;;;;;13.93;8.35;;;;;;;;;;6208528;23;20031;-60
2023/06/17 01:36:10;;;;;;;13.00;8.40;;;;;;;;;;6206423;23;20451;-59
2023/06/17 01:38:39;;;;;;;12.95;7.72;;;;;;;;;;6206160;23;20028;-60
2023/06/17 01:41:16;;;;;;;13.75;8.02;;;;;;;;;;6205757;23;20028;-44
2023/06/17 01:43:44;;;;;;;10.45;8.18;;;;;;;;;;6208035;23;20024;-46
2023/06/17 01:46:18;;;;;;;11.90;7.68;;;;;;;;;;6206530;23;20020;-48
2023/06/17 01:48:45;;;;;;;13.48;8.35;;;;;;;;;;6208394;23;20086;-49
2023/06/17 01:51:19;;;;;;;11.38;8.65;;;;;;;;;;6206578;23;20044;-50
2023/06/17 01:53:47;;;;;;;11.48;8.40;;;;;;;;;;6208078;23;20027;-47
2023/06/17 01:56:14;;;;;;;12.52;8.52;;;;;;;;;;6206328;23;20024;-46
2023/06/17 01:58:48;;;;;;;12.02;8.48;;;;;;;;;;6208807;23;20028;-46
2023/06/17 02:01:15;;;;;;;10.55;8.32;;;;;;;;;;6205966;23;20027;-44
2023/06/17 02:03:49;;;;;;;13.38;8.55;;;;;;;;;;6207976;23;20095;-43
2023/06/17 02:06:16;;;;;;;10.57;8.85;;;;;;;;;;6206479;23;20470;-45
2023/06/17 02:08:45;;;;;;;14.52;8.27;;;;;;;;;;6207925;23;20080;-49
2023/06/17 02:11:18;;;;;;;15.55;8.48;;;;;;;;;;6207010;23;20024;-40
2023/06/17 02:13:45;;;;;;;11.05;8.20;;;;;;;;;;6207653;23;20467;-43
2023/06/17 02:16:32;;;;;;;9.48;7.70;;;;;;;;;;6205168;23;20024;-42
2023/06/17 02:19:06;;;;;;;13.90;8.27;;;;;;;;;;6176973;23;20024;-43
2023/06/17 02:21:40;;;;;;;14.57;8.10;;;;;;;;;;6172724;23;20036;-42
2023/06/17 02:24:07;;;;;;;18.58;8.10;;;;;;;;;;6174222;23;20029;-43
2023/06/17 02:26:41;;;;;;;12.73;7.55;;;;;;;;;;6178075;23;20025;-44
2023/06/17 02:29:08;;;;;;;9.25;7.63;;;;;;;;;;6176242;23;20605;-45
2023/06/17 02:31:35;;;;;;;13.90;8.20;;;;;;;;;;6176200;23;20080;-43
2023/06/17 02:34:09;;;;;;;9.70;7.88;;;;;;;;;;6179934;23;20076;-43
2023/06/17 02:36:40;;;;;;;12.20;8.75;;;;;;;;;;6177628;23;20079;-42
2023/06/17 02:39:13;;;;;;;15.82;9.27;;;;;;;;;;6180313;23;20522;-46
2023/06/17 02:41:41;;;;;;;10.55;7.95;;;;;;;;;;6178090;23;20033;-44
2023/06/17 02:44:09;;;;;;;14.65;8.80;;;;;;;;;;6179655;23;20029;-42
2023/06/17 02:46:43;;;;;;;12.50;8.30;;;;;;;;;;6178159;23;20021;-59
2023/06/17 02:49:13;;;;;;;10.10;8.02;;;;;;;;;;6178933;23;20100;-59
2023/06/17 02:51:47;;;;;;;10.52;8.60;;;;;;;;;;6177639;23;20021;-59
2023/06/17 02:54:14;;;;;;;12.85;8.68;;;;;;;;;;6179170;23;20033;-60
2023/06/17 02:56:42;;;;;;;11.43;9.18;;;;;;;;;;6174384;23;20048;-59
2023/06/17 02:59:15;;;;;;;12.35;8.73;;;;;;;;;;6178336;23;20025;-50
2023/06/17 03:01:43;;;;;;;12.25;8.75;;;;;;;;;;6177412;23;20084;-46
2023/06/17 03:04:11;;;;;;;12.32;8.60;;;;;;;;;;6177663;23;20466;-49
2023/06/17 03:06:45;;;;;;;11.20;8.80;;;;;;;;;;6177204;23;20410;-51
2023/06/17 03:09:12;;;;;;;11.18;8.38;;;;;;;;;;6176713;23;20056;-48
2023/06/17 03:11:46;;;;;;;9.55;8.50;;;;;;;;;;6179358;23;20481;-53
2023/06/17 03:14:19;;;;;;;13.15;8.55;;;;;;;;;;6179395;23;20021;-43
2023/06/17 03:16:46;;;;;;;11.20;8.75;;;;;;;;;;6181908;23;20060;-59
2023/06/17 03:19:27;;;;;;;10.95;8.27;;;;;;;;;;6208659;23;20027;-50
2023/06/17 03:21:54;;;;;;;9.23;8.20;;;;;;;;;;6207823;23;20745;-48
2023/06/17 03:24:28;;;;;;;11.90;8.55;;;;;;;;;;6205808;23;20564;-51
2023/06/17 03:26:55;;;;;;;9.88;8.02;;;;;;;;;;6208711;23;20037;-50
2023/06/17 03:29:30;;;;;;;12.00;8.45;;;;;;;;;;6209299;23;20044;-47
2023/06/17 03:31:57;;;;;;;;;;;;;;;;;;6208414;23;20031;-48
2023/06/17 03:34:25;;;;;;;12.80;8.65;;;;;;;;;;6206598;23;19998;-45
2023/06/17 03:36:58;;;;;;;9.77;8.38;;;;;;;;;;6205729;23;20075;-47
2023/06/17 03:39:26;;;;;;;16.48;9.18;;;;;;;;;;6208106;23;20036;-48
2023/06/17 03:41:53;;;;;;;14.00;9.10;;;;;;;;;;6206482;23;20903;-48
2023/06/17 03:44:27;;;;;;;13.38;8.38;;;;;;;;;;6209233;23;20537;-49
2023/06/17 03:46:56;;;;;;;12.93;9.02;;;;;;;;;;6205886;23;20453;-46
2023/06/17 03:49:23;;;;;;;14.32;9.02;;;;;;;;;;6208528;23;20028;-49
2023/06/17 03:51:57;;;;;;;11.90;8.20;;;;;;;;;;6209074;23;20025;-44
2023/06/17 03:54:25;;;;;;;9.10;7.97;;;;;;;;;;6207134;23;20025;-61
2023/06/17 03:56:58;;;;;;;12.45;8.80;;;;;;;;;;6183204;23;20078;-59
2023/06/17 03:59:25;;;;;;;14.98;9.35;;;;;;;;;;6209153;23;20478;-60
2023/06/17 04:01:52;;;;;;;12.18;8.73;;;;;;;;;;6206201;23;20362;-60
2023/06/17 04:04:28;;;;;;;10.63;7.93;;;;;;;;;;6205459;23;20032;-59
2023/06/17 04:06:56;;;;;;;13.07;8.02;;;;;;;;;;6208660;23;20032;-59
2023/06/17 04:09:29;;;;;;;11.35;8.77;;;;;;;;;;6209305;23;20028;-45
2023/06/17 04:11:57;;;;;;;12.30;8.40;;;;;;;;;;6207646;23;20366;-45
2023/06/17 04:14:24;;;;;;;11.32;7.57;;;;;;;;;;6208241;23;20335;-47
2023/06/17 04:17:06;;;;;;;10.90;7.97;;;;;;;;;;6206835;23;20513;-45
2023/06/17 04:19:40;;;;;;;11.73;8.27;;;;;;;;;;6207038;23;20024;-49
2023/06/17 04:22:13;;;;;;;12.93;7.30;;;;;;;;;;6205816;23;20032;-45
2023/06/17 04:24:41;;;;;;;7.72;6.70;;;;;;;;;;6207887;23;20016;-42
2023/06/17 04:27:08;;;;;;;14.00;7.50;;;;;;;;;;6207240;23;20764;-43
2023/06/17 04:29:42;;;;;;;14.10;6.88;;;;;;;;;;6208263;23;20029;-42
2023/06/17 04:32:10;;;;;;;9.68;7.45;;;;;;;;;;6207186;23;20028;-40
2023/06/17 04:34:38;;;;;;;;;;;;;;;;;;6207862;23;20059;-43
2023/06/17 04:37:12;;;;;;;11.35;6.78;;;;;;;;;;6207902;23;19920;-43
2023/06/17 04:39:39;;;;;;;8.85;7.18;;;;;;;;;;6206961;23;20024;-50
2023/06/17 04:42:14;;;;;;;8.85;7.30;;;;;;;;;;6206281;23;20021;-41
2023/06/17 04:44:41;;;;;;;10.20;7.40;;;;;;;;;;6208406;23;20017;-43
2023/06/17 04:47:10;;;;;;;10.18;7.35;;;;;;;;;;6208635;23;20028;-40
2023/06/17 04:49:44;;;;;;;8.60;7.70;;;;;;;;;;6205127;23;20470;-40
2023/06/17 04:52:11;;;;;;;10.07;7.32;;;;;;;;;;6204567;23;20355;-43
2023/06/17 04:54:52;;;;;;;8.75;7.60;;;;;;;;;;6204987;23;20454;-42
2023/06/17 04:57:19;;;;;;;12.45;7.40;;;;;;;;;;6207537;23;20233;-43
2023/06/17 04:59:53;;;;;;;16.98;7.38;;;;;;;;;;6207380;23;20025;-60
2023/06/17 05:02:21;;;;;;;9.32;7.57;;;;;;;;;;6206529;23;20024;-60
2023/06/17 05:04:48;;;;;;;13.40;8.18;;;;;;;;;;6208245;23;20079;-59
2023/06/17 05:07:21;;;;;;;11.13;7.00;;;;;;;;;;6207173;23;20505;-59
2023/06/17 05:09:48;;;;;;;11.05;7.75;;;;;;;;;;6207301;23;20474;-58
2023/06/17 05:12:29;;;;;;;8.32;7.22;;;;;;;;;;6205689;23;20056;-60
2023/06/17 05:15:03;;;;;;;13.80;7.85;;;;;;;;;;6208599;23;20028;-43
2023/06/17 05:17:44;;;;;;;11.00;7.55;;;;;;;;;;6206009;23;20028;-40
2023/06/17 05:20:11;;;;;;;13.23;8.07;;;;;;;;;;6206578;23;20021;-40
2023/06/17 05:22:46;;;;;;;11.48;7.70;;;;;;;;;;6204389;23;20525;-40
2023/06/17 05:25:14;;;;;;;13.68;9.18;;;;;;;;;;6203543;23;20516;-40
2023/06/17 05:27:41;;;;;;;;;;;;;;;;;;6208856;23;20024;-52
2023/06/17 05:30:15;;;;;;;12.38;7.38;;;;;;;;;;6208408;23;19962;-50
2023/06/17 05:32:42;;;;;;;;;;;;;;;;;;6207311;23;20078;-48
2023/06/17 05:35:15;;;;;;;17.08;7.82;;;;;;;;;;6206190;23;19919;-47
2023/06/17 05:37:49;;;;;;;9.18;7.68;;;;;;;;;;6208568;23;20071;-46
2023/06/17 05:40:17;;;;;;;13.60;7.85;;;;;;;;;;6208501;23;20572;-48
2023/06/17 05:42:44;;;;;;;11.20;7.53;;;;;;;;;;6208276;23;20024;-48
2023/06/17 05:45:18;;;;;;;12.88;8.00;;;;;;;;;;6208263;23;20075;-49
2023/06/17 05:47:46;;;;;;;11.23;8.05;;;;;;;;;;6206645;23;20025;-46
2023/06/17 05:50:21;;;;;;;9.23;7.80;;;;;;;;;;6206628;23;20021;-48
2023/06/17 05:52:48;;;;;;;11.10;7.55;;;;;;;;;;6207263;23;20048;-47
2023/06/17 05:55:15;;;;;;;11.05;7.78;;;;;;;;;;6206970;23;20024;-50
2023/06/17 05:57:51;;;;;;;12.45;7.13;;;;;;;;;;6206823;23;20032;-50
2023/06/17 06:00:19;;;;;;;11.10;8.10;;;;;;;;;;6208510;23;20017;-47
2023/06/17 06:02:53;;;;;;;16.20;7.75;;;;;;;;;;6204458;23;20067;-44
2023/06/17 06:05:21;;;;;;;15.43;8.32;;;;;;;;;;6206070;23;20095;-46
2023/06/17 06:07:48;;;;;;;14.95;7.88;;;;;;;;;;6209228;23;20074;-50
2023/06/17 06:10:21;;;;;;;13.43;8.23;;;;;;;;;;6209045;23;20749;-47
2023/06/17 06:12:50;;;;;;;11.27;7.82;;;;;;;;;;6209653;23;20028;-60
2023/06/17 06:15:25;;;;;;;10.60;7.85;;;;;;;;;;6209359;23;20458;-60
2023/06/17 06:17:59;;;;;;;15.55;7.55;;;;;;;;;;6203842;23;20060;-61
2023/06/17 06:20:40;;;;;;;9.63;7.50;;;;;;;;;;6204210;23;20136;-60
2023/06/17 06:23:09;;;;;;;11.02;7.00;;;;;;;;;;6207901;23;20031;-51
2023/06/17 06:25:42;;;;;;;11.40;7.32;;;;;;;;;;6209317;23;20450;-60
2023/06/17 06:28:09;;;;;;;11.82;7.82;;;;;;;;;;6207845;23;20025;-59
2023/06/17 06:30:37;;;;;;;14.45;7.60;;;;;;;;;;6205946;23;20088;-60
2023/06/17 06:33:10;;;;;;;9.68;7.15;;;;;;;;;;6208993;23;20029;-60
2023/06/17 06:35:38;;;;;;;10.85;7.35;;;;;;;;;;6210140;23;20016;-60
2023/06/17 06:38:11;;;;;;;10.73;7.38;;;;;;;;;;6206890;23;20370;-60
2023/06/17 06:40:40;;;;;;;11.02;6.90;;;;;;;;;;6202955;23;20024;-46
2023/06/17 06:43:07;;;;;;;7.93;6.60;;;;;;;;;;6207183;23;20079;-61
2023/06/17 06:45:41;;;;;;;12.95;6.80;;;;;;;;;;6209613;23;20020;-60
2023/06/17 06:48:08;;;;;;;11.85;7.47;;;;;;;;;;6207348;23;20027;-59
2023/06/17 06:50:36;;;;;;;12.13;6.22;;;;;;;;;;6209277;23;20395;-61
2023/06/17 06:53:09;;;;;;;9.60;6.95;;;;;;;;;;6209147;23;20025;-59
2023/06/17 06:55:36;;;;;;;14.27;6.28;;;;;;;;;;6207570;23;20033;-60
2023/06/17 06:58:04;;;;;;;12.13;6.00;;;;;;;;;;6204047;23;20024;-45
2023/06/17 07:00:39;;;;;;;11.73;6.70;;;;;;;;;;6204594;23;20501;-45
2023/06/17 07:03:06;;;;;;;11.82;6.28;;;;;;;;;;6204019;23;20814;-45
2023/06/17 07:05:40;;;;;;;10.38;6.25;;;;;;;;;;6206144;23;20024;-44
2023/06/17 07:08:08;;;;;;;7.53;5.88;;;;;;;;;;6204673;23;20024;-50
2023/06/17 07:10:39;;;;;;;10.93;6.10;;;;;;;;;;6207918;23;20067;-46
2023/06/17 07:13:12;;;;;;;7.32;5.80;;;;;;;;;;6207402;23;20029;-49
2023/06/17 07:15:39;;;;;;;12.20;6.15;;;;;;;;;;6206553;23;20517;-49
2023/06/17 07:18:07;;;;;;;10.27;6.18;;;;;;;;;;6206101;23;20032;-50
2023/06/17 07:20:42;;;;;;;6.57;5.90;;;;;;;;;;6208781;23;20031;-53
2023/06/17 07:23:09;;;;;;;10.95;6.25;;;;;;;;;;6206069;23;20039;-52
2023/06/17 07:25:43;;;;;;;10.15;6.03;;;;;;;;;;6207638;23;20082;-52
2023/06/17 07:28:11;;;;;;;8.25;5.95;;;;;;;;;;6207191;23;20029;-45
2023/06/17 07:30:41;;;;;;;8.95;5.80;;;;;;;;;;6208234;23;20031;-52
2023/06/17 07:33:15;;;;;;;6.88;5.55;;;;;;;;;;6204864;23;20036;-53
2023/06/17 07:35:42;;;;;;;16.67;6.25;;;;;;;;;;6204432;23;20068;-54
2023/06/17 07:38:15;;;;;;;7.13;5.93;;;;;;;;;;6208567;23;20069;-48
2023/06/17 07:40:42;;;;;;;9.65;5.72;;;;;;;;;;6208514;23;20025;-54
2023/06/17 07:43:10;;;;;;;8.07;6.05;;;;;;;;;;6209353;23;20025;-53
2023/06/17 07:45:43;;;;;;;7.68;5.45;;;;;;;;;;6202489;23;20032;-63
2023/06/17 07:48:11;;;;;;;14.18;6.70;;;;;;;;;;6205432;23;20020;-52
2023/06/17 07:50:38;;;;;;;;;;;;;;;;;;6210138;23;20025;-50
2023/06/17 07:53:13;;;;;;;13.38;6.18;;;;;;;;;;6203219;23;19982;-54
2023/06/17 07:55:40;;;;;;;9.50;6.28;;;;;;;;;;6175970;23;20032;-51
2023/06/17 07:58:07;;;;;;;11.93;5.63;;;;;;;;;;6206697;23;20029;-48
2023/06/17 08:00:41;;;;;;;9.82;5.32;;;;;;;;;;6203840;23;20025;-50
2023/06/17 08:03:08;;;;;;;13.80;5.70;;;;;;;;;;6203046;23;20024;-58
2023/06/17 08:05:43;;;;;;;10.95;5.50;;;;;;;;;;6208923;23;20074;-46
2023/06/17 08:08:10;;;;;;;9.90;6.05;;;;;;;;;;6206925;23;20529;-59
2023/06/17 08:10:37;;;;;;;9.43;5.68;;;;;;;;;;6206758;23;20029;-59
2023/06/17 08:13:11;;;;;;;8.68;6.10;;;;;;;;;;6178747;23;20028;-59
2023/06/17 08:15:38;;;;;;;10.80;5.40;;;;;;;;;;6205690;23;20028;-60
2023/06/17 08:18:19;;;;;;;9.85;5.50;;;;;;;;;;6206837;23;20024;-59
2023/06/17 08:20:46;;;;;;;8.52;5.57;;;;;;;;;;6204898;23;20025;-59
2023/06/17 08:23:21;;;;;;;7.85;5.78;;;;;;;;;;6207038;23;20028;-42
2023/06/17 08:25:56;;;;;;;9.55;5.68;;;;;;;;;;6208614;23;20629;-49
2023/06/17 08:28:24;;;;;;;9.95;5.28;;;;;;;;;;6206467;23;20025;-48
2023/06/17 08:30:52;;;;;;;;;;;;;;;;;;6208484;23;20021;-47
2023/06/17 08:33:26;;;;;;;10.68;5.88;;;;;;;;;;6205500;23;20297;-52
2023/06/17 08:35:53;;;;;;;7.07;5.28;;;;;;;;;;6207842;23;20075;-47
2023/06/17 08:38:27;;;;;;;9.35;5.93;;;;;;;;;;6207550;23;20036;-49
2023/06/17 08:40:54;;;;;;;5.85;5.13;;;;;;;;;;6208739;23;20331;-54
2023/06/17 08:43:29;;;;;;;6.65;4.97;;;;;;;;;;6206546;23;20028;-57
2023/06/17 08:45:56;;;;;;;;;;;;;;;;;;6207072;23;20085;-54
2023/06/17 08:48:23;;;;;;;8.82;5.57;;;;;;;;;;6206551;23;19916;-55
2023/06/17 08:50:58;;;;;;;11.00;5.68;;;;;;;;;;6207826;23;20328;-55
2023/06/17 08:53:25;;;;;;;5.85;5.25;;;;;;;;;;6201277;23;20028;-55
2023/06/17 08:55:59;;;;;;;9.77;5.47;;;;;;;;;;6204969;23;20078;-57
2023/06/17 08:58:27;;;;;;;11.68;6.15;;;;;;;;;;6207797;23;20086;-60
2023/06/17 09:00:57;;;;;;;9.23;5.43;;;;;;;;;;6206994;23;20024;-60
2023/06/17 09:03:32;;;;;;;6.90;5.07;;;;;;;;;;6204118;23;20024;-59
2023/06/17 09:05:59;;;;;;;9.05;5.13;;;;;;;;;;6207512;23;20025;-59
2023/06/17 09:08:33;;;;;;;10.30;4.97;;;;;;;;;;6205765;23;20024;-52
2023/06/17 09:11:00;;;;;;;;;;;;;;;;;;6205240;23;20024;-64
2023/06/17 09:13:28;;;;;;;8.07;5.18;;;;;;;;;;6205145;23;19920;-53
2023/06/17 09:16:02;;;;;;;10.15;5.07;;;;;;;;;;6207246;23;20051;-50
2023/06/17 09:18:42;;;;;;;7.35;5.20;;;;;;;;;;6160440;23;20083;-51
2023/06/17 09:21:17;;;;;;;9.13;5.28;;;;;;;;;;6177945;23;20021;-52
2023/06/17 09:23:51;;;;;;;6.75;4.90;;;;;;;;;;6176614;23;20032;-49
2023/06/17 09:26:27;;;;;;;8.15;5.82;;;;;;;;;;6177832;23;20060;-48
2023/06/17 09:28:59;;;;;;;10.90;5.25;;;;;;;;;;6176642;23;20029;-49
2023/06/17 09:31:46;;;;;;;9.07;5.50;;;;;;;;;;6176836;23;20021;-47
2023/06/17 09:34:13;;;;;;;9.27;5.13;;;;;;;;;;6173072;23;20029;-52
2023/06/17 09:36:55;;;;;;;9.23;5.35;;;;;;;;;;6175315;23;20071;-49
2023/06/17 09:39:28;;;;;;;7.22;4.82;;;;;;;;;;6172945;23;20410;-63
2023/06/17 09:42:09;;;;;;;11.95;5.70;;;;;;;;;;6175203;23;20021;-60
2023/06/17 09:44:40;;;;;;;9.50;5.10;;;;;;;;;;6177731;23;20096;-59
2023/06/17 09:47:15;;;;;;;12.55;5.13;;;;;;;;;;6177293;23;20501;-60
2023/06/17 09:49:49;;;;;;;31.15;6.93;;;;;;;;;;6178691;23;20032;-59
2023/06/17 09:52:17;;;;;;;6.38;5.03;;;;;;;;;;6176386;23;20021;-60
2023/06/17 09:54:51;;;;;;;6.07;5.10;;;;;;;;;;6178225;23;20079;-59
2023/06/17 09:57:19;;;;;;;7.97;4.80;;;;;;;;;;6180152;23;20021;-46
2023/06/17 09:59:59;;;;;;;12.05;5.70;;;;;;;;;;6177122;23;20020;-43
2023/06/17 10:02:26;;;;;;;6.65;5.45;;;;;;;;;;6178721;23;20135;-45
2023/06/17 10:05:00;;;;;;;8.07;5.47;;;;;;;;;;6179670;23;20045;-46
2023/06/17 10:07:28;;;;;;;8.52;5.03;;;;;;;;;;6176005;23;20025;-58
2023/06/17 10:09:55;;;;;;;12.60;5.15;;;;;;;;;;6176575;23;20349;-57
2023/06/17 10:12:31;;;;;;;11.60;5.38;;;;;;;;;;6177368;23;20155;-57
2023/06/17 10:14:59;;;;;;;6.93;5.30;;;;;;;;;;6177380;23;20663;-56
2023/06/17 10:17:46;;;;;;;6.45;5.43;;;;;;;;;;6183720;23;20028;-58
2023/06/17 10:20:21;;;;;;;6.85;5.10;;;;;;;;;;6207608;23;20071;-56
2023/06/17 10:22:56;;;;;;;8.82;5.20;;;;;;;;;;6203024;23;20024;-51
2023/06/17 10:25:25;;;;;;;9.60;5.60;;;;;;;;;;6206796;23;20054;-55
2023/06/17 10:27:52;;;;;;;6.93;5.13;;;;;;;;;;6209813;23;20025;-57
2023/06/17 10:30:26;;;;;;;7.63;5.30;;;;;;;;;;6209415;23;20024;-57
2023/06/17 10:33:03;;;;;;;8.45;5.40;;;;;;;;;;6207174;23;20485;-55
2023/06/17 10:35:37;;;;;;;15.32;5.22;;;;;;;;;;6207432;23;20875;-52
2023/06/17 10:38:06;;;;;;;9.50;5.57;;;;;;;;;;6206859;23;20107;-51
2023/06/17 10:40:36;;;;;;;7.57;4.90;;;;;;;;;;6208227;23;20402;-49
2023/06/17 10:43:09;;;;;;;8.93;5.55;;;;;;;;;;6205264;23;20078;-48
2023/06/17 10:45:51;;;;;;;17.10;5.20;;;;;;;;;;6206730;23;20025;-49
2023/06/17 10:48:25;;;;;;;9.63;5.30;;;;;;;;;;6207573;23;20024;-51
2023/06/17 10:51:11;;;;;;;8.27;5.10;;;;;;;;;;6206054;23;20025;-51
2023/06/17 10:53:50;;;;;;;6.95;4.97;;;;;;;;;;6207710;23;20024;-52
2023/06/17 10:56:17;;;;;;;6.88;5.50;;;;;;;;;;6209748;23;20031;-54
2023/06/17 10:58:52;;;;;;;16.25;5.85;;;;;;;;;;6206577;23;20032;-53
2023/06/17 11:01:19;;;;;;;7.05;5.18;;;;;;;;;;6208538;23;20025;-53
2023/06/17 11:03:46;;;;;;;9.40;5.43;;;;;;;;;;6206964;23;20071;-50
2023/06/17 11:06:21;;;;;;;9.07;4.90;;;;;;;;;;6205321;23;20020;-45
2023/06/17 11:08:48;;;;;;;8.52;5.07;;;;;;;;;;6206139;23;20028;-48
2023/06/17 11:11:16;;;;;;;11.85;5.05;;;;;;;;;;6180870;23;20462;-45
2023/06/17 11:13:51;;;;;;;7.25;4.80;;;;;;;;;;6206264;23;20025;-45
2023/06/17 11:16:19;;;;;;;8.63;4.80;;;;;;;;;;6205512;23;20029;-47
2023/06/17 11:18:59;;;;;;;7.57;5.47;;;;;;;;;;6202512;23;20028;-46
2023/06/17 11:21:33;;;;;;;9.63;4.80;;;;;;;;;;6208851;23;20027;-64
2023/06/17 11:24:07;;;;;;;7.00;4.78;;;;;;;;;;6203675;23;20028;-64
2023/06/17 11:26:35;;;;;;;6.85;4.57;;;;;;;;;;6208511;23;20020;-63
2023/06/17 11:29:02;;;;;;;9.50;5.03;;;;;;;;;;6208049;23;20024;-64
2023/06/17 11:31:36;;;;;;;8.23;5.07;;;;;;;;;;6208667;23;20024;-44
2023/06/17 11:34:06;;;;;;;7.70;5.47;;;;;;;;;;6207695;23;20497;-57
2023/06/17 11:36:41;;;;;;;7.35;5.13;;;;;;;;;;6207119;23;20028;-56
2023/06/17 11:39:12;;;;;;;10.30;4.95;;;;;;;;;;6205069;23;20028;-57
2023/06/17 11:41:39;;;;;;;8.15;5.38;;;;;;;;;;6205986;23;20075;-56
2023/06/17 11:44:13;;;;;;;6.05;4.63;;;;;;;;;;6207330;23;20116;-56
2023/06/17 11:46:50;;;;;;;8.27;5.53;;;;;;;;;;6206943;23;20020;-57
2023/06/17 11:49:25;;;;;;;11.30;5.50;;;;;;;;;;6205765;23;20462;-60
2023/06/17 11:52:11;;;;;;;8.93;4.85;;;;;;;;;;6206764;23;20102;-60
2023/06/17 11:54:48;;;;;;;13.60;5.47;;;;;;;;;;6208081;23;20016;-60
2023/06/17 11:57:24;;;;;;;10.25;5.40;;;;;;;;;;6205107;23;20039;-61
2023/06/17 11:59:52;;;;;;;8.35;5.30;;;;;;;;;;6206680;23;20074;-64
2023/06/17 12:02:28;;;;;;;11.35;5.00;;;;;;;;;;6207293;23;20020;-62
2023/06/17 12:05:01;;;;;;;8.15;5.75;;;;;;;;;;6206209;23;20027;-63
2023/06/17 12:07:39;;;;;;;10.65;5.40;;;;;;;;;;6207174;23;20481;-63
2023/06/17 12:10:07;;;;;;;8.07;4.85;;;;;;;;;;6205997;23;20063;-64
2023/06/17 12:12:42;;;;;;;7.18;5.00;;;;;;;;;;6207790;23;20024;-65
2023/06/17 12:15:26;;;;;;;10.27;5.07;;;;;;;;;;6207326;23;20095;-64
2023/06/17 12:18:09;;;;;;;7.60;5.05;;;;;;;;;;6206849;23;20023;-50
2023/06/17 12:20:56;;;;;;;7.40;4.97;;;;;;;;;;6204136;23;20016;-59
2023/06/17 12:23:23;;;;;;;7.63;5.25;;;;;;;;;;6204689;23;20075;-46
2023/06/17 12:25:57;;;;;;;8.95;5.00;;;;;;;;;;6205196;23;20056;-48
2023/06/17 12:28:25;;;;;;;12.10;4.75;;;;;;;;;;6205104;23;20027;-47
2023/06/17 12:30:52;;;;;;;;;;;;;;;;;;6206840;23;20493;-47
2023/06/17 12:33:25;;;;;;;6.28;5.05;;;;;;;;;;6204813;23;19923;-50
2023/06/17 12:35:53;;;;;;;7.63;5.35;;;;;;;;;;6204661;23;20397;-47
2023/06/17 12:38:31;;;;;;;10.27;5.00;;;;;;;;;;6206316;23;20024;-48
2023/06/17 12:40:59;;;;;;;12.32;5.40;;;;;;;;;;6209700;23;20055;-45
2023/06/17 12:43:28;;;;;;;7.80;5.15;;;;;;;;;;6206335;23;20021;-47
2023/06/17 12:46:02;;;;;;;5.75;4.93;;;;;;;;;;6206592;23;20082;-45
2023/06/17 12:48:30;;;;;;;8.00;5.35;;;;;;;;;;6205474;23;20048;-47
2023/06/17 12:51:05;;;;;;;7.65;5.03;;;;;;;;;;6207166;23;20075;-49
2023/06/17 12:53:32;;;;;;;9.43;5.35;;;;;;;;;;6205560;23;20031;-43
2023/06/17 12:55:59;;;;;;;7.22;5.25;;;;;;;;;;6206816;23;20340;-47
2023/06/17 12:58:32;;;;;;;8.20;4.90;;;;;;;;;;6205920;23;20502;-63
2023/06/17 13:01:01;;;;;;;9.25;5.28;;;;;;;;;;6206946;23;20368;-64
2023/06/17 13:03:36;;;;;;;8.25;5.30;;;;;;;;;;6200421;23;20028;-64
2023/06/17 13:06:04;;;;;;;6.25;5.32;;;;;;;;;;6202980;23;20025;-64
2023/06/17 13:08:31;;;;;;;6.93;5.63;;;;;;;;;;6201468;23;20027;-63
2023/06/17 13:11:06;;;;;;;6.40;4.95;;;;;;;;;;6200784;23;20217;-63
2023/06/17 13:13:33;;;;;;;8.93;5.60;;;;;;;;;;6205637;23;20032;-57
2023/06/17 13:16:07;;;;;;;6.72;5.05;;;;;;;;;;6203245;23;20025;-53
2023/06/17 13:18:42;;;;;;;7.20;5.43;;;;;;;;;;6205225;23;20029;-54
2023/06/17 13:21:16;;;;;;;5.97;5.13;;;;;;;;;;6205413;23;20052;-55
2023/06/17 13:23:44;;;;;;;5.63;4.95;;;;;;;;;;6204336;23;20074;-54
2023/06/17 13:26:12;;;;;;;7.53;5.18;;;;;;;;;;6204851;23;20063;-55
2023/06/17 13:28:45;;;;;;;10.25;5.25;;;;;;;;;;6206242;23;20024;-51
2023/06/17 13:31:12;;;;;;;6.50;5.05;;;;;;;;;;6206669;23;20028;-53
2023/06/17 13:33:47;;;;;;;8.00;5.00;;;;;;;;;;6207354;23;20791;-52
2023/06/17 13:36:14;;;;;;;9.57;5.53;;;;;;;;;;6206829;23;20024;-52
2023/06/17 13:38:41;;;;;;;9.60;5.43;;;;;;;;;;6205880;23;20016;-56
2023/06/17 13:41:16;;;;;;;6.80;5.40;;;;;;;;;;6178332;23;20043;-53
2023/06/17 13:43:43;;;;;;;8.82;5.35;;;;;;;;;;6204146;23;20031;-55
2023/06/17 13:46:16;;;;;;;6.82;5.40;;;;;;;;;;6206749;23;20029;-55
2023/06/17 13:48:44;;;;;;;5.80;5.20;;;;;;;;;;6202335;23;20071;-54
2023/06/17 13:51:11;;;;;;;6.63;5.60;;;;;;;;;;6203640;23;20410;-51
2023/06/17 13:53:46;;;;;;;7.13;5.25;;;;;;;;;;6208109;23;20363;-56
2023/06/17 13:56:13;;;;;;;9.55;5.85;;;;;;;;;;6205705;23;20024;-57
2023/06/17 13:58:48;;;;;;;8.10;5.22;;;;;;;;;;6205418;23;20398;-55
2023/06/17 14:01:15;;;;;;;;;;;;;;;;;;6205204;23;20025;-46
2023/06/17 14:03:42;;;;;;;9.75;5.75;;;;;;;;;;6207464;23;19919;-51
2023/06/17 14:06:16;;;;;;;7.38;5.10;;;;;;;;;;6203190;23;20059;-48
2023/06/17 14:08:43;;;;;;;8.80;5.50;;;;;;;;;;6207570;23;20079;-47
2023/06/17 14:11:16;;;;;;;6.78;5.05;;;;;;;;;;6205716;23;20028;-47
2023/06/17 14:13:44;;;;;;;7.95;4.93;;;;;;;;;;6207442;23;20020;-49
2023/06/17 14:16:12;;;;;;;11.98;5.88;;;;;;;;;;6202389;23;20079;-49
2023/06/17 14:18:53;;;;;;;8.15;5.20;;;;;;;;;;6203128;23;20036;-60
2023/06/17 14:21:28;;;;;;;8.10;5.22;;;;;;;;;;6205994;23;20028;-60
2023/06/17 14:24:07;;;;;;;8.10;5.45;;;;;;;;;;6206313;23;20087;-60
2023/06/17 14:26:36;;;;;;;6.20;4.80;;;;;;;;;;6206883;23;20020;-60
2023/06/17 14:29:10;;;;;;;6.43;5.72;;;;;;;;;;6206140;23;20086;-62
2023/06/17 14:31:44;;;;;;;11.15;5.65;;;;;;;;;;6210372;23;20020;-63
2023/06/17 14:34:12;;;;;;;;;;;;;;;;;;6209395;23;20299;-63
2023/06/17 14:36:39;;;;;;;8.93;5.25;;;;;;;;;;6207653;23;19916;-63
2023/06/17 14:39:12;;;;;;;8.55;5.57;;;;;;;;;;6208365;23;20078;-63
2023/06/17 14:41:39;;;;;;;;;;;;;;;;;;6209304;23;20028;-63
2023/06/17 14:44:07;;;;;;;6.78;5.13;;;;;;;;;;6206569;23;19970;-63
2023/06/17 14:46:41;;;;;;;7.63;5.40;;;;;;;;;;6208264;23;20039;-46
2023/06/17 14:49:08;;;;;;;;;;;;;;;;;;6207302;23;20020;-54
2023/06/17 14:51:35;;;;;;;5.82;4.90;;;;;;;;;;6207910;23;19962;-51
2023/06/17 14:54:09;;;;;;;7.88;5.30;;;;;;;;;;6206290;23;20486;-54
2023/06/17 14:56:36;;;;;;;;;;;;;;;;;;6207610;23;20079;-50
2023/06/17 14:59:10;;;;;;;12.80;5.65;;;;;;;;;;6207600;23;19920;-63
2023/06/17 15:01:38;;;;;;;8.75;5.05;;;;;;;;;;6208456;23;20029;-49
2023/06/17 15:04:13;;;;;;;9.43;5.57;;;;;;;;;;6181196;23;20094;-48
2023/06/17 15:06:40;;;;;;;7.07;5.47;;;;;;;;;;6206220;23;20078;-51